createdAt,value
2022-11-16T00:02:14.602Z,12.70
2022-11-16T00:04:41.785Z,13.77
2022-11-16T00:07:08.971Z,13.63
2022-11-16T00:09:35.744Z,14.55
2022-11-16T00:12:05.995Z,12.43
2022-11-16T00:14:35.855Z,12.88
2022-11-16T00:17:03.536Z,33.70
2022-11-16T00:19:30.320Z,35.43
2022-11-16T00:21:56.983Z,15.43
2022-11-16T00:24:23.905Z,15.10
2022-11-16T00:26:52.984Z,19.60
2022-11-16T00:29:21.903Z,20.38
2022-11-16T00:31:49.975Z,16.90
2022-11-16T00:34:16.676Z,17.05
2022-11-16T00:36:43.657Z,17.35
2022-11-16T00:39:12.495Z,16.30
2022-11-16T00:41:39.384Z,16.27
2022-11-16T00:44:06.137Z,16.53
2022-11-16T00:46:32.786Z,17.20
2022-11-16T00:48:59.458Z,14.73
2022-11-16T00:51:26.074Z,14.15
2022-11-16T00:53:52.694Z,15.77
2022-11-16T00:56:19.318Z,15.73
2022-11-16T00:58:45.903Z,14.52
2022-11-16T01:01:13.324Z,13.93
2022-11-16T01:03:40.504Z,15.25
2022-11-16T01:06:09.528Z,15.52
2022-11-16T01:08:37.994Z,17.20
2022-11-16T01:11:23.855Z,16.48
2022-11-16T01:13:50.451Z,14.50
2022-11-16T01:16:18.796Z,19.38
2022-11-16T01:18:52.290Z,15.27
2022-11-16T01:21:19.895Z,15.00
2022-11-16T01:23:46.601Z,14.35
2022-11-16T01:26:13.646Z,15.02
2022-11-16T01:28:40.328Z,13.75
2022-11-16T01:31:08.104Z,15.68
2022-11-16T01:33:34.959Z,14.43
2022-11-16T01:36:01.583Z,14.35
2022-11-16T01:38:29.941Z,14.02
2022-11-16T01:40:56.951Z,13.98
2022-11-16T01:43:25.086Z,14.52
2022-11-16T01:45:52.053Z,12.27
2022-11-16T01:48:27.339Z,13.32
2022-11-16T01:50:57.814Z,13.68
2022-11-16T01:53:24.979Z,15.55
2022-11-16T01:55:52.358Z,14.95
2022-11-16T01:58:23.086Z,15.57
2022-11-16T02:00:50.170Z,14.95
2022-11-16T02:03:21.001Z,14.55
2022-11-16T02:06:15.489Z,12.25
2022-11-16T02:09:13.771Z,12.30
2022-11-16T02:11:56.451Z,12.10
2022-11-16T02:14:44.458Z,12.45
2022-11-16T02:17:25.432Z,13.00
2022-11-16T02:20:29.206Z,12.98
2022-11-16T02:23:26.757Z,10.13
2022-11-16T02:26:08.348Z,8.93
2022-11-16T02:29:03.093Z,8.60
2022-11-16T02:31:37.152Z,10.23
2022-11-16T02:34:07.694Z,8.30
2022-11-16T02:36:36.072Z,7.25
2022-11-16T02:39:10.445Z,7.73
2022-11-16T02:41:42.091Z,7.63
2022-11-16T02:44:17.090Z,7.88
2022-11-16T02:46:48.209Z,6.40
2022-11-16T02:49:18.723Z,6.53
2022-11-16T02:51:47.755Z,5.47
2022-11-16T02:54:20.093Z,5.13
2022-11-16T02:57:34.530Z,6.32
2022-11-16T03:00:02.415Z,5.75
2022-11-16T03:02:46.280Z,5.80
2022-11-16T03:05:31.990Z,6.87
2022-11-16T03:08:32.406Z,6.68
2022-11-16T03:11:22.800Z,6.30
2022-11-16T03:13:50.835Z,7.95
2022-11-16T03:16:26.164Z,7.10
2022-11-16T03:18:55.602Z,7.97
2022-11-16T03:21:28.135Z,7.47
2022-11-16T03:23:54.902Z,8.15
2022-11-16T03:26:26.306Z,7.13
2022-11-16T03:29:21.156Z,8.15
2022-11-16T03:31:55.604Z,9.20
2022-11-16T03:34:29.474Z,8.13
2022-11-16T03:36:58.980Z,8.85
2022-11-16T03:39:31.562Z,8.77
2022-11-16T03:42:01.104Z,10.20
2022-11-16T03:44:28.789Z,9.70
2022-11-16T03:46:55.556Z,9.65
2022-11-16T03:49:23.469Z,8.68
2022-11-16T03:51:51.158Z,7.80
2022-11-16T03:54:17.882Z,9.05
2022-11-16T03:56:44.481Z,9.70
2022-11-16T03:59:11.131Z,7.95
2022-11-16T04:01:41.857Z,8.15
2022-11-16T04:04:31.197Z,7.85
2022-11-16T04:07:16.634Z,7.70
2022-11-16T04:10:01.869Z,8.10
2022-11-16T04:12:47.101Z,8.50
2022-11-16T04:15:32.398Z,10.50
2022-11-16T04:18:17.611Z,10.23
2022-11-16T04:21:03.696Z,8.27
2022-11-16T04:23:49.223Z,8.00
2022-11-16T04:26:16.087Z,7.28
2022-11-16T04:28:43.115Z,7.97
2022-11-16T04:31:28.535Z,9.75
2022-11-16T04:34:13.789Z,10.48
2022-11-16T04:36:59.048Z,11.27
2022-11-16T04:39:25.616Z,9.98
2022-11-16T04:42:10.471Z,11.20
2022-11-16T04:44:55.875Z,8.13
2022-11-16T04:47:22.543Z,6.32
2022-11-16T04:49:49.219Z,6.70
2022-11-16T04:52:15.876Z,6.25
2022-11-16T04:54:42.535Z,6.85
2022-11-16T04:57:09.132Z,7.57
2022-11-16T04:59:35.738Z,7.18
2022-11-16T05:02:08.378Z,8.17
2022-11-16T05:04:39.631Z,6.78
2022-11-16T05:07:10.917Z,7.47
2022-11-16T05:09:48.048Z,6.03
2022-11-16T05:12:18.077Z,7.03
2022-11-16T05:14:44.823Z,6.87
2022-11-16T05:17:12.562Z,8.50
2022-11-16T05:19:57.858Z,9.45
2022-11-16T05:22:25.391Z,8.27
2022-11-16T05:24:52.664Z,9.10
2022-11-16T05:27:21.035Z,6.37
2022-11-16T05:29:51.716Z,5.25
2022-11-16T05:32:19.930Z,7.35
2022-11-16T05:34:46.754Z,5.90
2022-11-16T05:37:14.091Z,6.10
2022-11-16T05:39:41.063Z,5.87
2022-11-16T05:42:08.335Z,13.35
2022-11-16T05:44:35.020Z,9.02
2022-11-16T05:47:01.770Z,8.32
2022-11-16T05:49:28.676Z,8.40
2022-11-16T05:51:55.313Z,9.67
2022-11-16T05:54:24.873Z,8.85
2022-11-16T05:56:52.047Z,7.55
2022-11-16T05:59:20.258Z,16.85
2022-11-16T06:01:47.989Z,11.35
2022-11-16T06:04:15.133Z,16.23
2022-11-16T06:06:41.774Z,9.43
2022-11-16T06:09:09.544Z,5.65
2022-11-16T06:11:38.067Z,13.20
2022-11-16T06:14:05.156Z,227.55
2022-11-16T06:16:31.745Z,586.63
2022-11-16T06:18:59.851Z,335.45
2022-11-16T06:21:26.679Z,37.78
2022-11-16T06:23:53.624Z,28.23
2022-11-16T06:26:20.419Z,12.52
2022-11-16T06:28:47.216Z,61.10
2022-11-16T06:31:13.931Z,181.95
2022-11-16T06:33:40.620Z,106.88
2022-11-16T06:36:07.778Z,39.55
2022-11-16T06:38:34.618Z,22.88
2022-11-16T06:41:01.577Z,11.37
2022-11-16T06:43:28.207Z,7.93
2022-11-16T06:45:56.487Z,9.52
2022-11-16T06:48:23.374Z,6.60
2022-11-16T06:50:52.069Z,8.75
2022-11-16T06:53:19.482Z,6.47
2022-11-16T06:55:46.323Z,6.07
2022-11-16T06:58:12.978Z,6.13
2022-11-16T07:00:39.813Z,6.38
2022-11-16T07:03:06.794Z,6.25
2022-11-16T07:05:33.632Z,8.47
2022-11-16T07:08:00.292Z,6.55
2022-11-16T07:10:26.923Z,6.68
2022-11-16T07:12:53.593Z,6.13
2022-11-16T07:15:20.275Z,11.63
2022-11-16T07:17:47.542Z,6.67
2022-11-16T07:20:14.323Z,8.80
2022-11-16T07:22:40.971Z,15.50
2022-11-16T07:25:08.266Z,15.18
2022-11-16T07:27:34.900Z,15.35
2022-11-16T07:30:02.252Z,12.97
2022-11-16T07:32:31.037Z,15.50
2022-11-16T07:34:59.630Z,12.95
2022-11-16T07:37:26.662Z,11.88
2022-11-16T07:39:53.300Z,11.90
2022-11-16T07:42:19.956Z,15.27
2022-11-16T07:44:46.562Z,13.13
2022-11-16T07:47:13.238Z,13.68
2022-11-16T07:49:40.083Z,13.88
2022-11-16T07:52:10.129Z,11.55
2022-11-16T07:54:37.107Z,9.47
2022-11-16T07:57:03.990Z,13.63
2022-11-16T07:59:30.706Z,13.27
2022-11-16T08:01:59.195Z,11.75
2022-11-16T08:04:26.021Z,11.55
2022-11-16T08:06:52.874Z,13.47
2022-11-16T08:09:19.705Z,10.35
2022-11-16T08:11:47.210Z,10.20
2022-11-16T08:14:14.069Z,11.30
2022-11-16T08:16:40.711Z,9.88
2022-11-16T08:19:07.280Z,10.60
2022-11-16T08:21:33.921Z,8.13
2022-11-16T08:24:00.493Z,9.88
2022-11-16T08:26:27.714Z,11.30
2022-11-16T08:28:56.511Z,9.98
2022-11-16T08:31:26.644Z,7.10
2022-11-16T08:33:53.409Z,6.53
2022-11-16T08:36:20.745Z,5.57
2022-11-16T08:38:48.834Z,4.40
2022-11-16T08:41:16.616Z,3.97
2022-11-16T08:43:44.650Z,4.80
2022-11-16T08:46:11.413Z,3.70
2022-11-16T08:48:38.201Z,3.05
2022-11-16T08:51:19.177Z,5.25
2022-11-16T08:53:48.352Z,4.38
2022-11-16T08:56:17.112Z,3.00
2022-11-16T08:58:46.748Z,3.28
2022-11-16T09:01:19.053Z,3.63
2022-11-16T09:03:46.671Z,3.03
2022-11-16T09:06:14.096Z,4.28
2022-11-16T09:08:42.601Z,2.90
2022-11-16T09:11:12.101Z,3.15
2022-11-16T09:13:38.718Z,2.33
2022-11-16T09:16:05.655Z,4.45
2022-11-16T09:18:32.955Z,2.65
2022-11-16T09:20:59.825Z,3.37
2022-11-16T09:23:26.539Z,2.80
2022-11-16T09:25:54.670Z,3.85
2022-11-16T09:28:22.640Z,4.15
2022-11-16T09:30:51.141Z,2.80
2022-11-16T09:33:18.341Z,3.00
2022-11-16T09:35:45.411Z,2.40
2022-11-16T09:38:16.200Z,2.75
2022-11-16T09:40:48.959Z,2.60
2022-11-16T09:43:45.924Z,3.63
2022-11-16T09:46:37.865Z,3.90
2022-11-16T09:49:17.637Z,2.83
2022-11-16T09:51:48.765Z,21.50
2022-11-16T09:54:20.667Z,3.55
2022-11-16T09:56:51.705Z,3.40
2022-11-16T09:59:25.471Z,2.37
2022-11-16T10:02:03.365Z,6.25
2022-11-16T10:05:13.023Z,3.47
2022-11-16T10:07:46.643Z,3.13
2022-11-16T10:10:23.261Z,5.25
2022-11-16T10:13:04.584Z,3.77
2022-11-16T10:16:06.019Z,2.58
2022-11-16T10:18:44.192Z,1.95
2022-11-16T10:21:39.669Z,3.65
2022-11-16T10:24:27.647Z,2.22
2022-11-16T10:26:59.861Z,3.03
2022-11-16T10:29:48.420Z,3.17
2022-11-16T10:32:30.926Z,3.28
2022-11-16T10:35:05.451Z,3.47
2022-11-16T10:37:36.928Z,2.97
2022-11-16T10:40:27.483Z,3.13
2022-11-16T10:43:04.051Z,3.55
2022-11-16T10:45:45.637Z,3.10
2022-11-16T10:48:39.667Z,2.97
2022-11-16T10:51:08.199Z,3.88
2022-11-16T10:53:49.322Z,5.10
2022-11-16T10:56:32.502Z,2.80
2022-11-16T10:59:02.799Z,2.75
2022-11-16T11:01:38.888Z,4.25
2022-11-16T11:04:27.035Z,4.43
2022-11-16T11:07:02.454Z,3.77
2022-11-16T11:09:31.057Z,3.45
2022-11-16T11:12:37.159Z,4.63
2022-11-16T11:15:06.896Z,3.55
2022-11-16T11:17:35.499Z,4.97
2022-11-16T11:20:05.591Z,3.17
2022-11-16T11:22:35.138Z,3.67
2022-11-16T11:25:03.372Z,3.47
2022-11-16T11:27:34.790Z,3.58
2022-11-16T11:30:01.721Z,4.35
2022-11-16T11:32:40.077Z,2.23
2022-11-16T11:35:21.772Z,2.58
2022-11-16T11:37:53.139Z,4.75
2022-11-16T11:40:27.548Z,2.95
2022-11-16T11:42:57.815Z,2.90
2022-11-16T11:45:35.747Z,4.23
2022-11-16T11:48:14.687Z,4.13
2022-11-16T11:50:54.241Z,3.47
2022-11-16T11:53:23.788Z,3.10
2022-11-16T11:55:59.804Z,3.83
2022-11-16T11:58:31.065Z,4.60
2022-11-16T12:01:34.827Z,4.10
2022-11-16T12:04:07.134Z,4.18
2022-11-16T12:07:27.615Z,2.35
2022-11-16T12:10:07.645Z,4.28
2022-11-16T12:12:49.352Z,3.47
2022-11-16T12:15:24.783Z,3.88
2022-11-16T12:18:18.180Z,2.45
2022-11-16T12:20:55.580Z,3.55
2022-11-16T12:23:22.159Z,4.68
2022-11-16T12:26:02.009Z,3.37
2022-11-16T12:28:51.278Z,4.90
2022-11-16T12:31:50.291Z,3.00
2022-11-16T12:34:38.692Z,3.90
2022-11-16T12:37:24.104Z,3.28
2022-11-16T12:40:28.535Z,4.20
2022-11-16T12:43:05.708Z,4.53
2022-11-16T12:45:35.121Z,4.20
2022-11-16T12:48:24.948Z,5.47
2022-11-16T12:50:55.143Z,3.20
2022-11-16T12:53:27.435Z,3.30
2022-11-16T12:56:39.294Z,4.25
2022-11-16T12:59:33.564Z,3.55
2022-11-16T13:02:16.315Z,2.67
2022-11-16T13:04:52.829Z,3.78
2022-11-16T13:07:31.195Z,2.57
2022-11-16T13:10:05.323Z,3.38
2022-11-16T13:12:33.110Z,3.22
2022-11-16T13:15:03.120Z,3.67
2022-11-16T13:17:37.113Z,3.53
2022-11-16T13:20:28.088Z,3.90
2022-11-16T13:23:05.674Z,5.47
2022-11-16T13:25:40.407Z,3.63
2022-11-16T13:28:16.179Z,3.10
2022-11-16T13:31:02.306Z,3.65
2022-11-16T13:33:49.294Z,4.23
2022-11-16T13:36:36.873Z,4.88
2022-11-16T13:39:05.471Z,3.80
2022-11-16T13:41:40.547Z,2.55
2022-11-16T13:44:22.012Z,3.08
2022-11-16T13:46:56.194Z,3.30
2022-11-16T13:49:31.837Z,5.32
2022-11-16T13:52:17.286Z,2.70
2022-11-16T13:54:55.422Z,2.90
2022-11-16T13:57:29.583Z,3.78
2022-11-16T14:00:10.214Z,3.57
2022-11-16T14:02:38.463Z,3.28
2022-11-16T14:05:36.939Z,3.70
2022-11-16T14:08:37.205Z,5.05
2022-11-16T14:11:05.348Z,4.10
2022-11-16T14:13:36.200Z,1.97
2022-11-16T14:16:15.319Z,3.60
2022-11-16T14:18:43.890Z,4.93
2022-11-16T14:21:19.323Z,3.85
2022-11-16T14:23:51.673Z,3.78
2022-11-16T14:26:27.191Z,3.40
2022-11-16T14:29:07.413Z,3.20
2022-11-16T14:31:54.782Z,2.17
2022-11-16T14:34:31.374Z,3.72
2022-11-16T14:36:59.567Z,2.42
2022-11-16T14:39:46.395Z,4.33
2022-11-16T14:42:21.555Z,3.83
2022-11-16T14:44:49.743Z,4.25
2022-11-16T14:47:24.498Z,2.75
2022-11-16T14:49:51.854Z,4.22
2022-11-16T14:52:26.359Z,5.57
2022-11-16T14:55:01.348Z,2.38
2022-11-16T14:57:28.546Z,2.53
2022-11-16T15:00:30.508Z,3.83
2022-11-16T15:03:02.088Z,7.03
2022-11-16T15:05:34.542Z,6.17
2022-11-16T15:08:03.579Z,3.38
2022-11-16T15:10:30.355Z,4.03
2022-11-16T15:12:57.735Z,2.25
2022-11-16T15:15:29.822Z,6.85
2022-11-16T15:17:59.269Z,3.83
2022-11-16T15:20:29.001Z,2.90
2022-11-16T15:22:59.049Z,9.57
2022-11-16T15:25:36.901Z,8.90
2022-11-16T15:28:28.558Z,15.40
2022-11-16T15:31:01.678Z,11.40
2022-11-16T15:33:38.617Z,5.53
2022-11-16T15:36:44.170Z,6.28
2022-11-16T15:39:28.129Z,5.32
2022-11-16T15:42:00.432Z,4.88
2022-11-16T15:44:31.184Z,6.97
2022-11-16T15:46:58.789Z,11.32
2022-11-16T15:49:38.445Z,10.75
2022-11-16T15:52:05.260Z,14.85
2022-11-16T15:54:53.831Z,24.63
2022-11-16T15:57:22.962Z,15.80
2022-11-16T15:59:52.065Z,6.20
2022-11-16T16:02:21.915Z,6.07
2022-11-16T16:04:48.662Z,9.38
2022-11-16T16:07:41.775Z,12.63
2022-11-16T16:10:20.809Z,12.10
2022-11-16T16:12:50.644Z,12.32
2022-11-16T16:15:24.036Z,8.93
2022-11-16T16:17:52.262Z,9.32
2022-11-16T16:20:22.831Z,14.50
2022-11-16T16:22:50.192Z,20.87
2022-11-16T16:25:34.007Z,24.40
2022-11-16T16:28:00.681Z,24.38
2022-11-16T16:30:31.536Z,25.13
2022-11-16T16:32:58.393Z,39.35
2022-11-16T16:35:26.057Z,21.33
2022-11-16T16:38:01.851Z,12.82
2022-11-16T16:40:29.278Z,7.13
2022-11-16T16:42:56.730Z,12.15
2022-11-16T16:45:41.877Z,13.25
2022-11-16T16:48:12.747Z,13.67
2022-11-16T16:50:39.878Z,24.30
2022-11-16T16:53:06.605Z,26.75
2022-11-16T16:55:37.503Z,25.42
2022-11-16T16:58:04.957Z,23.27
2022-11-16T17:00:31.876Z,17.73
2022-11-16T17:03:01.072Z,16.95
2022-11-16T17:05:27.689Z,17.08
2022-11-16T17:07:55.895Z,15.27
2022-11-16T17:10:23.104Z,10.90
2022-11-16T17:12:53.387Z,9.03
2022-11-16T17:15:20.067Z,8.65
2022-11-16T17:17:47.129Z,7.18
2022-11-16T17:20:14.456Z,9.25
2022-11-16T17:22:41.926Z,11.40
2022-11-16T17:25:09.449Z,10.33
2022-11-16T17:27:36.081Z,14.02
2022-11-16T17:30:03.421Z,17.67
2022-11-16T17:32:30.512Z,22.40
2022-11-16T17:34:57.125Z,35.70
2022-11-16T17:37:23.833Z,32.03
2022-11-16T17:39:50.498Z,30.27
2022-11-16T17:42:17.173Z,22.98
2022-11-16T17:44:43.786Z,25.75
2022-11-16T17:47:11.537Z,23.08
2022-11-16T17:49:38.216Z,20.43
2022-11-16T17:52:05.079Z,21.67
2022-11-16T17:54:31.857Z,18.02
2022-11-16T17:56:58.530Z,18.00
2022-11-16T17:59:29.163Z,15.40
2022-11-16T18:01:57.998Z,16.50
2022-11-16T18:04:24.960Z,14.85
2022-11-16T18:06:51.631Z,17.70
2022-11-16T18:09:18.843Z,14.70
2022-11-16T18:11:45.717Z,16.95
2022-11-16T18:14:12.613Z,130.63
2022-11-16T18:16:42.307Z,34.28
2022-11-16T18:19:09.879Z,22.40
2022-11-16T18:21:41.177Z,22.08
2022-11-16T18:24:08.535Z,20.67
2022-11-16T18:26:35.351Z,20.03
2022-11-16T18:29:02.212Z,23.77
2022-11-16T18:31:29.819Z,28.83
2022-11-16T18:33:56.616Z,30.77
2022-11-16T18:36:23.255Z,43.85
2022-11-16T18:38:50.146Z,47.43
2022-11-16T18:41:19.694Z,43.65
2022-11-16T18:44:00.883Z,40.08
2022-11-16T18:46:32.551Z,27.25
2022-11-16T18:48:59.975Z,26.90
2022-11-16T18:51:28.012Z,27.37
2022-11-16T18:53:55.225Z,32.20
2022-11-16T18:56:22.429Z,30.83
2022-11-16T18:58:50.834Z,31.13
2022-11-16T19:01:19.812Z,28.35
2022-11-16T19:03:46.618Z,29.10
2022-11-16T19:06:15.590Z,25.27
2022-11-16T19:08:42.770Z,26.98
2022-11-16T19:11:14.651Z,25.63
2022-11-16T19:13:43.267Z,26.35
2022-11-16T19:16:11.842Z,26.83
2022-11-16T19:18:38.900Z,26.92
2022-11-16T19:21:09.998Z,27.88
2022-11-16T19:23:37.785Z,51.33
2022-11-16T19:26:05.428Z,43.10
2022-11-16T19:28:36.760Z,45.17
2022-11-16T19:31:14.126Z,46.97
2022-11-16T19:33:41.575Z,52.72
2022-11-16T19:36:16.268Z,46.13
2022-11-16T19:38:44.138Z,38.05
2022-11-16T19:41:12.534Z,39.03
2022-11-16T19:43:39.355Z,38.53
2022-11-16T19:46:12.391Z,36.22
2022-11-16T19:48:39.349Z,36.20
2022-11-16T19:51:11.403Z,34.17
2022-11-16T19:53:39.237Z,33.23
2022-11-16T19:56:07.190Z,31.27
2022-11-16T19:58:38.333Z,27.65
2022-11-16T20:01:07.462Z,26.33
2022-11-16T20:03:34.820Z,28.25
2022-11-16T20:06:10.153Z,30.07
2022-11-16T20:08:37.869Z,34.17
2022-11-16T20:11:20.249Z,22.40
2022-11-16T20:13:48.673Z,26.35
2022-11-16T20:16:17.240Z,21.38
2022-11-16T20:18:44.103Z,35.33
2022-11-16T20:21:18.636Z,37.25
2022-11-16T20:23:45.563Z,33.17
2022-11-16T20:26:13.840Z,34.78
2022-11-16T20:28:42.663Z,37.42
2022-11-16T20:31:15.015Z,36.83
2022-11-16T20:33:42.211Z,32.80
2022-11-16T20:36:11.069Z,31.40
2022-11-16T20:38:39.169Z,32.00
2022-11-16T20:41:09.613Z,31.48
2022-11-16T20:43:36.942Z,30.77
2022-11-16T20:46:03.763Z,31.67
2022-11-16T20:48:30.406Z,33.58
2022-11-16T20:50:57.021Z,53.90
2022-11-16T20:53:24.662Z,32.00
2022-11-16T20:55:51.250Z,26.67
2022-11-16T20:58:22.653Z,29.67
2022-11-16T21:00:50.195Z,32.72
2022-11-16T21:03:17.241Z,31.55
2022-11-16T21:05:45.095Z,25.92
2022-11-16T21:08:13.025Z,28.73
2022-11-16T21:10:40.044Z,25.00
2022-11-16T21:13:30.461Z,24.60
2022-11-16T21:16:02.590Z,45.28
2022-11-16T21:18:31.013Z,73.25
2022-11-16T21:21:08.912Z,60.60
2022-11-16T21:23:37.322Z,37.50
2022-11-16T21:26:06.506Z,34.13
2022-11-16T21:28:33.639Z,31.42
2022-11-16T21:31:06.579Z,37.20
2022-11-16T21:33:34.558Z,33.50
2022-11-16T21:36:05.803Z,27.90
2022-11-16T21:38:33.039Z,22.58
2022-11-16T21:41:00.347Z,25.35
2022-11-16T21:43:27.634Z,24.75
2022-11-16T21:46:01.951Z,23.20
2022-11-16T21:48:30.476Z,23.67
2022-11-16T21:51:02.000Z,24.10
2022-11-16T21:53:29.138Z,23.77
2022-11-16T21:55:55.775Z,26.45
2022-11-16T21:58:22.621Z,24.80
2022-11-16T22:00:49.521Z,23.38
2022-11-16T22:03:16.219Z,22.92
2022-11-16T22:06:01.226Z,21.52
2022-11-16T22:08:27.955Z,20.80
2022-11-16T22:10:54.645Z,18.07
2022-11-16T22:13:21.711Z,20.08
2022-11-16T22:15:48.447Z,18.77
2022-11-16T22:18:15.089Z,21.15
2022-11-16T22:20:41.772Z,19.27
2022-11-16T22:23:08.431Z,21.07
2022-11-16T22:25:36.710Z,20.10
2022-11-16T22:28:20.271Z,22.75
2022-11-16T22:30:51.710Z,21.17
2022-11-16T22:33:19.016Z,19.17
2022-11-16T22:35:46.896Z,20.67
2022-11-16T22:38:13.598Z,18.83
2022-11-16T22:40:40.243Z,20.38
2022-11-16T22:43:06.902Z,26.00
2022-11-16T22:45:33.534Z,46.13
2022-11-16T22:48:00.196Z,50.53
2022-11-16T22:50:27.163Z,44.15
2022-11-16T22:52:53.766Z,41.03
2022-11-16T22:55:20.418Z,33.33
2022-11-16T22:57:47.052Z,20.27
2022-11-16T23:00:14.142Z,19.50
2022-11-16T23:02:41.246Z,23.45
2022-11-16T23:05:08.471Z,22.45
2022-11-16T23:07:35.801Z,19.35
2022-11-16T23:10:03.353Z,20.88
2022-11-16T23:12:49.487Z,20.47
2022-11-16T23:15:36.081Z,19.00
2022-11-16T23:18:02.804Z,18.05
2022-11-16T23:20:48.777Z,18.70
2022-11-16T23:23:38.232Z,18.38
2022-11-16T23:26:31.708Z,20.70
2022-11-16T23:28:58.736Z,19.27
2022-11-16T23:31:25.412Z,17.40
2022-11-16T23:33:52.017Z,21.50
2022-11-16T23:36:18.667Z,18.92
2022-11-16T23:38:45.289Z,21.77
2022-11-16T23:41:30.298Z,20.00
2022-11-16T23:43:59.895Z,19.73
2022-11-16T23:46:31.727Z,19.00
2022-11-16T23:48:59.068Z,21.85
2022-11-16T23:51:25.695Z,29.13
2022-11-16T23:53:53.595Z,16.30
2022-11-16T23:56:20.854Z,20.88
2022-11-16T23:58:47.767Z,18.02
